Terminal Aerodrome Forecast
Issued by NWS

Home | Current Version | Previous Version | Text Only | Print | Product List | Glossary On
Versions: 1 2 3 4 5 6 7 8 9 10 11 12 13
000
FTUS43 KIND 032320
TAFHUF
TAF
KHUF 032320Z 0400/0424 29010KT P6SM SCT050
     FM040100 33003KT P6SM SKC
     FM040900 32001KT 5SM BR SKC
     FM041330 27004KT P6SM SCT040=

USA.gov is the U.S. government's official web portal to all federal, state and local government web resources and services.